Time;durP1;ratioP1;P1;durP2;ratioP2;P2;SDS_P1;SDS_P2;PMS_P1;PMS_P2;Temp;Humidity;BMP_temperature;BMP_pressure;BME280_temperature;BME280_humidity;BME280_pressure;Samples;Min_cycle;Max_cycle;Signal;HPM_P1;HPM_P2
2022/05/16 00:00:11;;;;;;;13.98;6.85;;;13.40;81.20;;;;;;5057750;28;20093;-76
2022/05/16 00:02:37;;;;;;;12.88;7.22;;;13.30;81.00;;;;;;5057786;28;20040;-76
2022/05/16 00:05:03;;;;;;;11.57;6.13;;;13.30;81.80;;;;;;5057933;28;20041;-77
2022/05/16 00:07:29;;;;;;;13.00;7.13;;;13.20;81.60;;;;;;5057578;28;20077;-78
2022/05/16 00:09:55;;;;;;;15.02;7.30;;;13.30;81.80;;;;;;5057635;28;20467;-76
2022/05/16 00:12:20;;;;;;;11.52;6.97;;;13.20;81.50;;;;;;5057552;28;20048;-76
2022/05/16 00:14:47;;;;;;;10.88;5.65;;;13.30;81.50;;;;;;5040989;28;20041;-76
2022/05/16 00:17:13;;;;;;;13.38;7.20;;;13.20;81.10;;;;;;5057338;28;20044;-74
2022/05/16 00:19:40;;;;;;;10.75;6.32;;;13.30;81.40;;;;;;5057023;28;20048;-76
2022/05/16 00:22:06;;;;;;;13.98;7.60;;;13.30;81.00;;;;;;5057523;28;20040;-77
2022/05/16 00:24:32;;;;;;;12.20;6.70;;;13.30;81.20;;;;;;5040612;28;20040;-75
2022/05/16 00:26:59;;;;;;;12.27;6.68;;;13.20;81.30;;;;;;5057238;28;20062;-78
2022/05/16 00:29:25;;;;;;;15.95;6.85;;;13.30;81.30;;;;;;5057420;28;20553;-75
2022/05/16 00:31:54;;;;;;;12.55;6.82;;;13.10;81.30;;;;;;5057349;28;20046;-75
2022/05/16 00:34:20;;;;;;;15.35;8.25;;;13.20;81.50;;;;;;5040694;28;20047;-77
2022/05/16 00:36:47;;;;;;;13.20;7.32;;;13.20;81.50;;;;;;5057098;28;20084;-77
2022/05/16 00:39:15;;;;;;;11.35;6.95;;;13.20;81.70;;;;;;5057198;28;20066;-75
2022/05/16 00:41:42;;;;;;;12.32;7.20;;;13.20;81.60;;;;;;5040310;28;20037;-77
2022/05/16 00:44:10;;;;;;;12.70;7.40;;;13.10;82.30;;;;;;5040441;28;20044;-75
2022/05/16 00:46:36;;;;;;;14.95;6.72;;;13.10;81.80;;;;;;5056939;28;20051;-74
2022/05/16 00:49:04;;;;;;;12.02;6.15;;;13.10;82.50;;;;;;5056802;28;20053;-78
2022/05/16 00:51:47;;;;;;;12.23;6.97;;;13.10;82.00;;;;;;5057103;28;20503;-75
2022/05/16 00:54:24;;;;;;;11.52;7.10;;;13.10;82.20;;;;;;5056690;28;20040;-77
2022/05/16 00:56:57;;;;;;;13.77;7.18;;;13.10;82.10;;;;;;5040113;28;20556;-77
2022/05/16 00:59:30;;;;;;;9.93;6.20;;;13.10;82.10;;;;;;5056624;28;20044;-75
2022/05/16 01:04:50;;;;;;;15.18;7.07;;;13.10;81.60;;;;;;5055888;28;20082;-75
2022/05/16 01:07:32;;;;;;;13.43;7.10;;;13.10;82.20;;;;;;5056383;28;20076;-75
2022/05/16 01:09:57;;;;;;;12.25;6.57;;;13.10;81.70;;;;;;5056677;28;20036;-75
2022/05/16 01:12:35;;;;;;;12.00;6.93;;;13.00;81.80;;;;;;5056520;28;20124;-77
2022/05/16 01:15:06;;;;;;;10.18;6.22;;;13.00;82.00;;;;;;5056400;28;20115;-74
2022/05/16 01:17:32;;;;;;;10.27;6.90;;;13.00;82.10;;;;;;5056171;28;20484;-76
2022/05/16 01:19:58;;;;;;;11.48;6.07;;;13.00;82.10;;;;;;5039649;28;20245;-76
2022/05/16 01:22:24;;;;;;;11.02;6.22;;;13.00;82.20;;;;;;5039626;28;20123;-77
2022/05/16 01:24:55;;;;;;;12.60;6.85;;;13.00;82.10;;;;;;5056389;28;20470;-76
2022/05/16 01:27:21;;;;;;;14.00;6.78;;;13.00;82.00;;;;;;5039424;28;20040;-76
2022/05/16 01:29:49;;;;;;;11.68;6.25;;;13.00;81.90;;;;;;5056062;28;20488;-76
2022/05/16 01:32:15;;;;;;;8.73;6.45;;;13.00;81.90;;;;;;5056123;28;20036;-77
2022/05/16 01:34:43;;;;;;;10.85;7.35;;;13.00;82.00;;;;;;5039356;28;20044;-75
2022/05/16 01:37:09;;;;;;;9.63;6.38;;;13.00;81.70;;;;;;5055957;28;20052;-76
2022/05/16 01:39:34;;;;;;;8.18;5.65;;;12.90;81.90;;;;;;5056029;28;20123;-77
2022/05/16 01:42:00;;;;;;;14.00;6.55;;;12.90;81.90;;;;;;5039289;28;20097;-77
2022/05/16 01:44:26;;;;;;;16.55;7.57;;;12.90;81.70;;;;;;5056175;28;20054;-75
2022/05/16 01:46:52;;;;;;;12.02;6.60;;;12.90;81.60;;;;;;5055857;28;20431;-77
2022/05/16 01:49:17;;;;;;;11.25;6.57;;;12.80;81.80;;;;;;5055643;28;20092;-77
2022/05/16 01:51:43;;;;;;;12.05;6.20;;;12.90;81.80;;;;;;5056257;28;20040;-75
2022/05/16 01:54:09;;;;;;;9.70;5.22;;;12.80;81.70;;;;;;5022805;28;20480;-78
2022/05/16 01:56:36;;;;;;;11.00;5.72;;;12.90;81.40;;;;;;5055763;28;20460;-74
2022/05/16 01:59:03;;;;;;;10.45;6.50;;;12.90;81.60;;;;;;5055523;28;20089;-78
2022/05/16 02:01:29;;;;;;;11.85;7.15;;;12.90;81.50;;;;;;5056058;28;20049;-75
2022/05/16 02:03:55;;;;;;;8.95;5.55;;;12.80;81.40;;;;;;5055780;28;20045;-78
2022/05/16 02:06:20;;;;;;;10.50;6.63;;;12.80;81.50;;;;;;5039126;28;20140;-77
2022/05/16 02:08:49;;;;;;;11.77;6.68;;;12.80;81.50;;;;;;5038635;28;20040;-76
2022/05/16 02:11:16;;;;;;;11.43;7.50;;;12.80;81.50;;;;;;5055275;28;20098;-76
2022/05/16 02:13:43;;;;;;;10.98;6.35;;;12.80;81.30;;;;;;5055106;28;20119;-77
2022/05/16 02:16:09;;;;;;;10.02;6.40;;;12.80;81.40;;;;;;5055171;28;20040;-76
2022/05/16 02:18:36;;;;;;;8.93;6.40;;;12.70;81.30;;;;;;5055318;28;20045;-76
2022/05/16 02:26:33;;;;;;;11.65;6.18;;;12.60;81.60;;;;;;5055587;28;20434;-74
2022/05/16 02:28:59;;;;;;;9.90;6.15;;;12.60;81.50;;;;;;5055345;28;20048;-75
2022/05/16 02:31:25;;;;;;;11.20;6.90;;;12.70;81.60;;;;;;5055557;28;20036;-77
2022/05/16 02:33:50;;;;;;;10.55;5.78;;;12.60;81.50;;;;;;5055499;28;20044;-74
2022/05/16 02:36:16;;;;;;;9.65;5.93;;;12.60;81.40;;;;;;5055140;28;20071;-75
2022/05/16 02:38:43;;;;;;;10.40;6.45;;;12.60;81.30;;;;;;5055047;28;20072;-77
2022/05/16 02:41:09;;;;;;;10.90;5.88;;;12.60;81.30;;;;;;5055027;28;20052;-77
2022/05/16 02:43:35;;;;;;;9.93;6.20;;;12.50;81.30;;;;;;5055073;28;20125;-75
2022/05/16 02:46:00;;;;;;;14.20;6.40;;;12.50;81.30;;;;;;5055306;28;20090;-76
2022/05/16 02:48:26;;;;;;;9.07;5.40;;;12.50;81.40;;;;;;5055011;28;20067;-77
2022/05/16 02:50:52;;;;;;;10.35;6.47;;;12.50;81.30;;;;;;5055261;28;20046;-75
2022/05/16 02:53:18;;;;;;;9.00;5.60;;;12.40;81.60;;;;;;5055087;28;20142;-76
2022/05/16 02:55:44;;;;;;;8.70;5.07;;;12.40;81.50;;;;;;5054908;28;20076;-76
2022/05/16 02:58:10;;;;;;;8.68;4.90;;;12.40;81.70;;;;;;5054853;28;20396;-74
2022/05/16 03:00:37;;;;;;;13.35;6.03;;;12.40;81.60;;;;;;5038195;28;20195;-77
2022/05/16 03:03:03;;;;;;;7.82;4.60;;;12.30;81.70;;;;;;5054942;28;20396;-76
2022/05/16 03:05:29;;;;;;;8.40;5.55;;;12.40;81.70;;;;;;5054588;28;20041;-75
2022/05/16 03:07:55;;;;;;;9.20;4.82;;;12.30;81.60;;;;;;5054994;28;20047;-77
2022/05/16 03:10:22;;;;;;;8.80;4.70;;;12.30;81.70;;;;;;5055088;28;20044;-76
2022/05/16 03:12:49;;;;;;;9.13;5.00;;;12.30;81.40;;;;;;5054788;28;20132;-76
2022/05/16 03:15:16;;;;;;;10.25;5.45;;;12.40;81.40;;;;;;5054767;28;20059;-75
2022/05/16 03:17:42;;;;;;;11.70;5.47;;;12.30;81.30;;;;;;5037969;28;20048;-77
2022/05/16 03:20:12;;;;;;;6.90;3.97;;;12.30;81.20;;;;;;5054886;28;20044;-75
2022/05/16 03:22:37;;;;;;;7.47;4.40;;;12.30;81.50;;;;;;5054757;28;20040;-76
2022/05/16 03:25:04;;;;;;;8.30;5.00;;;12.30;81.40;;;;;;5054777;28;20445;-76
2022/05/16 03:27:30;;;;;;;11.65;4.80;;;12.30;81.40;;;;;;5040685;28;20127;-75
2022/05/16 03:29:56;;;;;;;7.63;4.15;;;12.30;81.30;;;;;;5041760;28;20177;-74
2022/05/16 03:32:22;;;;;;;8.73;4.93;;;12.30;81.20;;;;;;5058276;28;20048;-76
2022/05/16 03:34:53;;;;;;;7.65;4.57;;;12.30;81.30;;;;;;5058132;28;20045;-76
2022/05/16 03:37:19;;;;;;;9.43;4.70;;;12.30;81.10;;;;;;5057627;28;20091;-77
2022/05/16 03:42:30;;;;;;;8.85;3.90;;;12.40;80.80;;;;;;5058151;28;20131;-78
2022/05/16 03:44:56;;;;;;;9.52;4.10;;;12.50;80.50;;;;;;5041986;28;20131;-76
2022/05/16 03:47:21;;;;;;;11.75;4.72;;;12.40;80.40;;;;;;5041555;28;20376;-78
2022/05/16 03:49:47;;;;;;;6.63;3.25;;;12.50;80.40;;;;;;5057896;28;20056;-75
2022/05/16 03:52:14;;;;;;;7.20;3.88;;;12.50;80.20;;;;;;5041716;28;20067;-76
2022/05/16 03:54:40;;;;;;;7.93;4.10;;;12.50;80.10;;;;;;5058015;28;20048;-75
2022/05/16 03:57:06;;;;;;;11.98;4.28;;;12.60;79.90;;;;;;5058073;28;20076;-76
2022/05/16 03:59:32;;;;;;;8.80;4.20;;;12.60;79.70;;;;;;5057778;28;20137;-77
2022/05/16 04:01:58;;;;;;;6.78;3.40;;;12.60;79.70;;;;;;5057789;28;20080;-76
2022/05/16 04:04:25;;;;;;;7.40;4.15;;;12.60;79.50;;;;;;5041294;28;20119;-74
2022/05/16 04:06:50;;;;;;;6.75;3.33;;;12.60;79.50;;;;;;5057961;28;20521;-76
2022/05/16 04:09:16;;;;;;;9.65;5.05;;;12.60;79.60;;;;;;5041190;28;20079;-76
2022/05/16 04:11:42;;;;;;;7.10;3.85;;;12.60;79.40;;;;;;5024840;28;20135;-77
2022/05/16 04:14:08;;;;;;;8.23;3.83;;;12.60;79.50;;;;;;5041141;28;20048;-75
2022/05/16 04:16:33;;;;;;;7.43;3.78;;;12.60;79.30;;;;;;5041343;28;20040;-77
2022/05/16 04:18:59;;;;;;;8.02;3.80;;;12.60;79.30;;;;;;5040722;28;20400;-74
2022/05/16 04:21:25;;;;;;;6.60;3.53;;;12.60;79.30;;;;;;5057732;28;20037;-76
2022/05/16 04:23:51;;;;;;;7.70;4.30;;;12.60;79.20;;;;;;5040847;28;20395;-76
2022/05/16 04:26:17;;;;;;;7.43;3.95;;;12.60;79.30;;;;;;5057304;28;20044;-75
2022/05/16 04:28:43;;;;;;;3.80;2.58;;;12.60;79.30;;;;;;5057277;28;20047;-76
2022/05/16 04:31:09;;;;;;;6.00;3.60;;;12.60;79.30;;;;;;5040680;28;20120;-75
2022/05/16 04:33:35;;;;;;;7.07;3.17;;;12.60;79.30;;;;;;5057108;28;20095;-76
2022/05/16 04:36:01;;;;;;;4.90;3.10;;;12.60;79.20;;;;;;5057095;28;20051;-75
2022/05/16 04:38:27;;;;;;;6.65;2.80;;;12.60;79.20;;;;;;5040233;28;20511;-75
2022/05/16 04:43:37;;;;;;;6.50;2.60;;;12.70;78.90;;;;;;5057422;28;20412;-75
2022/05/16 04:46:07;;;;;;;5.55;2.85;;;12.80;78.60;;;;;;5057279;28;20048;-78
2022/05/16 04:48:35;;;;;;;6.30;3.20;;;12.90;78.30;;;;;;5037618;28;20075;-76
2022/05/16 04:51:01;;;;;;;10.00;3.17;;;12.90;78.30;;;;;;5037018;28;20477;-78
2022/05/16 04:53:27;;;;;;;5.57;3.10;;;12.90;78.00;;;;;;5037004;28;20041;-76
2022/05/16 04:55:53;;;;;;;5.45;2.90;;;13.00;77.80;;;;;;5053214;28;20045;-75
2022/05/16 04:58:21;;;;;;;6.20;3.10;;;13.00;77.50;;;;;;5053370;28;20416;-77
2022/05/16 05:00:47;;;;;;;7.75;3.55;;;13.10;77.30;;;;;;5036969;28;20056;-77
2022/05/16 05:03:12;;;;;;;4.38;2.78;;;13.10;77.00;;;;;;5036805;28;20472;-77
2022/05/16 05:05:38;;;;;;;5.82;2.75;;;13.20;76.70;;;;;;5036712;28;20041;-77
2022/05/16 05:08:04;;;;;;;6.85;3.72;;;13.20;76.90;;;;;;5036653;28;20040;-75
2022/05/16 05:16:17;;;;;;;10.10;3.28;;;13.40;76.50;;;;;;5052848;28;20059;-77
2022/05/16 05:18:43;;;;;;;7.78;3.38;;;13.50;76.30;;;;;;5052870;28;20052;-77
2022/05/16 05:21:09;;;;;;;5.95;3.30;;;13.50;76.20;;;;;;5053057;28;20094;-76
2022/05/16 05:23:38;;;;;;;7.43;3.20;;;13.50;76.10;;;;;;5053088;28;20033;-75
2022/05/16 05:26:05;;;;;;;5.35;3.10;;;13.50;75.90;;;;;;5052877;28;20041;-75
2022/05/16 05:28:32;;;;;;;7.60;3.00;;;13.50;75.60;;;;;;5053047;28;20053;-78
2022/05/16 05:30:58;;;;;;;6.53;3.17;;;13.50;75.70;;;;;;5036569;28;20122;-76
2022/05/16 05:33:24;;;;;;;5.07;2.92;;;13.50;75.60;;;;;;5036415;28;20492;-77
2022/05/16 05:35:50;;;;;;;7.60;3.75;;;13.50;75.70;;;;;;5052720;28;20052;-75
2022/05/16 05:38:16;;;;;;;6.90;3.85;;;13.50;75.80;;;;;;5032484;28;20075;-78
2022/05/16 05:40:41;;;;;;;5.32;3.40;;;13.50;75.90;;;;;;5016229;28;20034;-76
2022/05/16 05:43:07;;;;;;;8.57;3.50;;;13.50;76.10;;;;;;5032670;28;20037;-78
2022/05/16 05:45:35;;;;;;;6.00;3.40;;;13.50;76.00;;;;;;5032132;28;20041;-77
2022/05/16 05:48:01;;;;;;;8.77;3.30;;;13.60;75.70;;;;;;5038954;28;20090;-77
2022/05/16 05:50:27;;;;;;;7.18;2.83;;;13.70;75.80;;;;;;5021849;28;20053;-75
2022/05/16 05:52:53;;;;;;;8.07;3.38;;;13.80;76.00;;;;;;5043302;28;20504;-76
2022/05/16 05:55:20;;;;;;;9.13;3.50;;;13.90;76.30;;;;;;5036810;28;20386;-77
2022/05/16 05:57:46;;;;;;;9.02;3.53;;;14.00;75.50;;;;;;5035772;28;20056;-76
2022/05/16 06:00:13;;;;;;;8.98;3.35;;;14.10;75.80;;;;;;5038265;28;20037;-78
2022/05/16 06:02:42;;;;;;;10.18;3.88;;;14.20;75.40;;;;;;5017353;28;20163;-76
2022/05/16 06:05:13;;;;;;;9.30;4.15;;;14.30;75.00;;;;;;5038078;28;20267;-78
2022/05/16 06:07:39;;;;;;;7.90;3.65;;;14.40;75.00;;;;;;5052292;28;20488;-78
2022/05/16 06:10:06;;;;;;;7.60;3.47;;;14.50;74.90;;;;;;5052210;28;20102;-78
2022/05/16 06:12:32;;;;;;;7.40;3.38;;;14.60;74.60;;;;;;5051876;28;20053;-77
2022/05/16 06:14:58;;;;;;;7.13;3.42;;;14.70;74.10;;;;;;5052090;28;20512;-78
2022/05/16 06:17:24;;;;;;;11.25;4.90;;;14.80;73.90;;;;;;5035591;28;20049;-76
2022/05/16 06:19:49;;;;;;;7.60;3.33;;;14.80;73.70;;;;;;5020269;28;20045;-76
2022/05/16 06:22:15;;;;;;;5.65;2.88;;;15.00;73.90;;;;;;5040387;28;20047;-75
2022/05/16 06:27:28;;;;;;;6.78;3.75;;;15.10;72.90;;;;;;5021029;28;20094;-75
2022/05/16 06:29:59;;;;;;;8.25;3.65;;;15.20;72.80;;;;;;5033451;28;20048;-75
2022/05/16 06:32:25;;;;;;;5.93;3.00;;;15.30;72.60;;;;;;5022614;28;20083;-75
2022/05/16 06:34:52;;;;;;;6.35;3.30;;;15.50;72.40;;;;;;5036237;28;20524;-77
2022/05/16 06:37:18;;;;;;;7.63;4.13;;;15.50;72.10;;;;;;5035938;28;20048;-74
2022/05/16 06:39:45;;;;;;;11.35;4.13;;;15.60;71.80;;;;;;5014813;28;20045;-78
2022/05/16 06:42:11;;;;;;;9.20;4.10;;;15.70;71.60;;;;;;5031729;28;20143;-77
2022/05/16 06:44:37;;;;;;;7.18;4.15;;;15.80;71.60;;;;;;5031920;28;20047;-75
2022/05/16 06:47:03;;;;;;;9.10;4.28;;;15.90;71.50;;;;;;5030633;28;20124;-76
2022/05/16 06:49:29;;;;;;;8.40;3.70;;;16.00;71.40;;;;;;5031470;28;20187;-77
2022/05/16 06:51:54;;;;;;;9.23;4.28;;;16.10;70.50;;;;;;5015641;28;20053;-77
2022/05/16 06:54:20;;;;;;;10.35;4.15;;;16.20;70.20;;;;;;5015756;28;20045;-76
2022/05/16 06:56:46;;;;;;;8.23;3.53;;;16.40;70.60;;;;;;5031695;28;20077;-75
2022/05/16 06:59:12;;;;;;;7.82;3.35;;;16.50;69.70;;;;;;5031628;28;20123;-75
2022/05/16 07:01:37;;;;;;;9.45;3.78;;;16.60;68.90;;;;;;5016691;28;20037;-74
2022/05/16 07:04:04;;;;;;;8.00;3.15;;;16.60;68.80;;;;;;5035692;28;20416;-76
2022/05/16 07:06:31;;;;;;;7.00;3.33;;;16.70;68.70;;;;;;5035326;28;20037;-76
2022/05/16 07:08:56;;;;;;;9.57;3.95;;;16.70;68.00;;;;;;5035449;28;20041;-77
2022/05/16 07:11:22;;;;;;;8.88;3.20;;;16.80;68.30;;;;;;5019207;28;20042;-75
2022/05/16 07:13:48;;;;;;;8.95;3.70;;;16.90;68.50;;;;;;5035300;28;20072;-75
2022/05/16 07:16:13;;;;;;;8.85;3.28;;;17.00;68.50;;;;;;5035571;28;20037;-76
2022/05/16 07:18:39;;;;;;;8.57;3.50;;;17.10;68.00;;;;;;5035394;28;20045;-75
2022/05/16 07:21:06;;;;;;;6.97;3.58;;;17.30;67.80;;;;;;5035358;28;20052;-75
2022/05/16 07:23:33;;;;;;;7.88;3.22;;;17.40;68.00;;;;;;5035360;28;20081;-73
2022/05/16 07:28:43;;;;;;;6.25;3.95;;;17.60;67.10;;;;;;5035223;28;20052;-74
2022/05/16 07:31:10;;;;;;;10.07;3.55;;;17.90;66.20;;;;;;5018740;28;20140;-76
2022/05/16 07:33:35;;;;;;;8.90;3.92;;;17.90;66.60;;;;;;5035297;28;20104;-74
2022/05/16 07:36:02;;;;;;;10.50;4.03;;;18.10;66.70;;;;;;5035050;28;20497;-75
2022/05/16 07:38:28;;;;;;;8.18;3.47;;;18.20;66.50;;;;;;5035090;28;20096;-75
2022/05/16 07:40:55;;;;;;;7.47;3.40;;;18.40;65.60;;;;;;5034960;28;20638;-75
2022/05/16 07:43:21;;;;;;;11.85;3.83;;;18.50;65.30;;;;;;5035066;28;20041;-75
2022/05/16 07:45:47;;;;;;;7.65;3.60;;;18.50;65.20;;;;;;5034800;28;20054;-75
2022/05/16 07:48:14;;;;;;;7.22;3.45;;;18.60;64.70;;;;;;5035720;28;20050;-76
2022/05/16 07:50:41;;;;;;;6.78;3.03;;;18.80;64.60;;;;;;5021569;28;20049;-75
2022/05/16 07:53:12;;;;;;;8.88;3.83;;;18.90;64.60;;;;;;5038296;28;20049;-75
2022/05/16 07:55:45;;;;;;;8.57;3.40;;;19.00;63.80;;;;;;5038138;28;20049;-77
2022/05/16 07:58:12;;;;;;;5.85;2.58;;;19.10;62.60;;;;;;5037831;28;20040;-76
2022/05/16 08:00:38;;;;;;;12.07;3.97;;;19.20;62.90;;;;;;5037508;28;20495;-74
2022/05/16 08:03:04;;;;;;;7.45;3.45;;;19.30;62.80;;;;;;5037885;28;20033;-75
2022/05/16 08:05:33;;;;;;;7.25;3.58;;;19.40;62.90;;;;;;5021254;28;20502;-74
2022/05/16 08:10:43;;;;;;;;;;;19.40;63.30;;;;;;5037904;28;20044;-76
2022/05/16 08:13:12;;;;;;;9.82;3.85;;;19.40;63.00;;;;;;5020610;28;19954;-73
2022/05/16 08:15:41;;;;;;;7.22;3.30;;;19.40;62.80;;;;;;5020995;28;20056;-75
2022/05/16 08:18:09;;;;;;;7.10;2.90;;;19.30;63.10;;;;;;5037301;28;20556;-74
2022/05/16 08:20:37;;;;;;;8.63;3.28;;;19.20;63.10;;;;;;5037371;28;20047;-74
2022/05/16 08:23:04;;;;;;;6.32;3.50;;;19.30;63.60;;;;;;5020955;28;20370;-75
2022/05/16 08:25:30;;;;;;;6.20;3.55;;;19.40;63.60;;;;;;5037152;28;20091;-74
2022/05/16 08:27:56;;;;;;;7.13;2.95;;;19.50;63.50;;;;;;5037180;28;20131;-74
2022/05/16 08:30:25;;;;;;;8.32;3.60;;;19.50;63.00;;;;;;5037200;28;20129;-75
2022/05/16 08:32:51;;;;;;;8.35;3.30;;;19.70;63.20;;;;;;5037348;28;20044;-75
2022/05/16 08:35:19;;;;;;;6.97;3.25;;;19.80;63.00;;;;;;5020527;28;20045;-76
2022/05/16 08:40:54;;;;;;;6.50;3.20;;;20.00;62.60;;;;;;5037270;28;20120;-73
2022/05/16 08:43:57;;;;;;;7.55;3.35;;;20.10;62.30;;;;;;5037303;28;20091;-74
2022/05/16 08:46:45;;;;;;;10.98;3.25;;;20.20;62.30;;;;;;5037319;28;20037;-76
2022/05/16 08:49:16;;;;;;;8.02;3.00;;;20.20;62.40;;;;;;5036808;28;20142;-76
2022/05/16 08:51:45;;;;;;;7.40;2.75;;;20.40;62.00;;;;;;5037108;28;20041;-75
2022/05/16 08:54:34;;;;;;;6.68;3.05;;;20.60;61.20;;;;;;5036796;28;20041;-75
2022/05/16 08:57:07;;;;;;;9.10;3.58;;;20.90;60.60;;;;;;5036651;28;20439;-76
2022/05/16 08:59:38;;;;;;;9.63;3.05;;;21.20;59.80;;;;;;5020502;28;20444;-75
2022/05/16 09:02:21;;;;;;;10.93;3.50;;;21.40;59.20;;;;;;5036965;28;20052;-74
2022/05/16 09:05:10;;;;;;;9.48;4.40;;;21.70;59.10;;;;;;5036526;28;20040;-74
2022/05/16 09:07:50;;;;;;;6.80;3.10;;;22.00;57.10;;;;;;5036534;28;20397;-74
2022/05/16 09:10:21;;;;;;;8.23;3.53;;;22.20;57.50;;;;;;5036600;28;20048;-76
2022/05/16 09:13:11;;;;;;;9.02;3.67;;;22.30;56.10;;;;;;5036596;28;20080;-78
2022/05/16 09:15:55;;;;;;;8.60;4.07;;;22.50;55.20;;;;;;5036229;28;20043;-74
2022/05/16 09:18:32;;;;;;;9.77;3.42;;;22.60;55.20;;;;;;5036408;28;20040;-74
2022/05/16 09:21:30;;;;;;;11.07;3.53;;;22.90;55.20;;;;;;5020317;28;20139;-78
2022/05/16 09:24:17;;;;;;;7.43;3.70;;;23.10;53.40;;;;;;5035545;28;20067;-78
2022/05/16 09:26:53;;;;;;;6.57;3.22;;;23.30;54.80;;;;;;5035827;28;20041;-76
2022/05/16 09:29:32;;;;;;;9.88;4.05;;;23.40;54.60;;;;;;5035806;28;20044;-75
2022/05/16 09:32:15;;;;;;;8.25;3.40;;;23.50;53.30;;;;;;5019778;28;20106;-76
2022/05/16 09:34:41;;;;;;;7.13;3.35;;;23.70;51.10;;;;;;5035874;28;20045;-76
2022/05/16 09:37:07;;;;;;;10.35;3.80;;;23.90;53.70;;;;;;5035731;28;20052;-75
2022/05/16 09:39:35;;;;;;;10.27;3.72;;;23.90;53.70;;;;;;5035991;28;20044;-77
2022/05/16 09:42:19;;;;;;;9.10;4.90;;;23.90;53.50;;;;;;5019695;28;20033;-74
2022/05/16 09:45:03;;;;;;;6.68;3.08;;;23.70;53.10;;;;;;5019717;28;20044;-75
2022/05/16 09:47:29;;;;;;;7.82;3.38;;;23.70;53.90;;;;;;5035807;28;20555;-76
2022/05/16 09:50:27;;;;;;;9.40;3.85;;;23.70;54.20;;;;;;5035692;28;20136;-76
2022/05/16 09:52:59;;;;;;;7.95;3.33;;;23.50;52.20;;;;;;5019659;28;20435;-77
2022/05/16 09:55:35;;;;;;;8.00;4.32;;;23.40;53.50;;;;;;5035738;28;20484;-76
2022/05/16 09:58:12;;;;;;;9.07;4.13;;;23.30;53.80;;;;;;5035578;28;20041;-77
2022/05/16 10:00:57;;;;;;;8.75;3.53;;;23.30;52.30;;;;;;5035779;28;20037;-77
2022/05/16 10:03:41;;;;;;;10.88;3.65;;;23.20;54.10;;;;;;5035721;28;20075;-76
2022/05/16 10:06:10;;;;;;;9.65;3.58;;;23.20;53.80;;;;;;5018899;28;20091;-75
2022/05/16 10:08:38;;;;;;;8.32;3.95;;;23.20;55.10;;;;;;5035961;28;20396;-77
2022/05/16 10:11:17;;;;;;;10.27;3.67;;;23.20;54.80;;;;;;5035466;28;20076;-77
2022/05/16 10:13:44;;;;;;;11.70;3.67;;;23.20;54.70;;;;;;5035725;28;20044;-77
2022/05/16 10:16:11;;;;;;;9.20;4.07;;;23.10;54.60;;;;;;5035724;28;20040;-77
2022/05/16 10:18:47;;;;;;;8.73;3.30;;;22.90;53.40;;;;;;5019085;28;20485;-77
2022/05/16 10:21:24;;;;;;;13.98;3.97;;;22.80;54.40;;;;;;5035460;28;20091;-78
2022/05/16 10:23:51;;;;;;;10.48;3.70;;;22.80;55.40;;;;;;5035694;28;20476;-75
2022/05/16 10:26:20;;;;;;;10.30;3.72;;;22.70;55.20;;;;;;5002587;28;20044;-75
2022/05/16 10:28:51;;;;;;;9.63;3.80;;;22.70;55.00;;;;;;5035462;28;20041;-77
2022/05/16 10:34:22;;;;;;;8.10;3.35;;;22.60;55.10;;;;;;5035174;28;20055;-77
2022/05/16 10:36:53;;;;;;;8.73;3.97;;;22.60;55.90;;;;;;5039039;28;20447;-78
2022/05/16 10:39:27;;;;;;;11.70;4.20;;;22.60;55.30;;;;;;5039504;28;20098;-78
2022/05/16 10:42:06;;;;;;;7.53;3.38;;;22.50;54.90;;;;;;5039335;28;20116;-77
2022/05/16 10:44:45;;;;;;;9.57;3.90;;;22.60;55.70;;;;;;5039224;28;20481;-78
2022/05/16 10:47:18;;;;;;;10.63;4.70;;;22.60;55.80;;;;;;5039091;28;20045;-75
2022/05/16 10:50:01;;;;;;;8.13;3.70;;;22.80;56.20;;;;;;5038803;28;20060;-76
2022/05/16 10:52:36;;;;;;;9.77;4.13;;;22.90;56.00;;;;;;5022410;28;20103;-76
2022/05/16 10:55:03;;;;;;;7.72;3.75;;;22.90;55.30;;;;;;5039110;28;20059;-78
2022/05/16 10:58:00;;;;;;;9.68;3.53;;;23.10;54.90;;;;;;5039066;28;20052;-78
2022/05/16 11:00:33;;;;;;;7.43;4.57;;;23.30;53.10;;;;;;5039043;28;20124;-78
2022/05/16 11:03:22;;;;;;;8.50;4.00;;;23.60;53.20;;;;;;5039148;28;20037;-77
2022/05/16 11:06:29;;;;;;;8.57;4.07;;;23.90;52.90;;;;;;5038709;28;20055;-76
2022/05/16 11:09:14;;;;;;;9.68;4.45;;;24.00;52.20;;;;;;5017325;28;20126;-75
2022/05/16 11:12:18;;;;;;;10.80;5.05;;;24.00;52.00;;;;;;5021879;28;20033;-77
2022/05/16 11:15:00;;;;;;;9.83;5.10;;;24.00;51.60;;;;;;5021737;28;20504;-78
2022/05/16 11:17:49;;;;;;;15.30;5.22;;;24.00;51.90;;;;;;5038310;28;20049;-78
2022/05/16 11:20:42;;;;;;;13.63;7.03;;;24.00;51.80;;;;;;5021955;28;20094;-74
2022/05/16 11:23:29;;;;;;;15.30;5.97;;;23.90;52.50;;;;;;5021948;28;20040;-76
2022/05/16 11:26:04;;;;;;;10.57;5.68;;;24.00;52.90;;;;;;5021575;28;20079;-78
2022/05/16 11:29:17;;;;;;;13.88;5.63;;;24.00;52.40;;;;;;5021467;28;20045;-76
2022/05/16 11:31:33;;;;;;;12.10;6.35;;;23.90;51.80;;;;;;5037841;28;20045;-77
2022/05/16 11:33:59;;;;;;;10.00;5.32;;;23.80;51.80;;;;;;5038164;28;20098;-76
2022/05/16 11:36:45;;;;;;;13.05;5.53;;;23.70;52.40;;;;;;5021495;28;20443;-75
2022/05/16 11:39:24;;;;;;;9.55;5.50;;;23.70;52.50;;;;;;5021595;28;20393;-77
2022/05/16 11:42:05;;;;;;;11.13;5.90;;;23.60;53.10;;;;;;5037740;28;20045;-77
2022/05/16 11:44:40;;;;;;;14.13;5.78;;;23.50;53.10;;;;;;5021181;28;20079;-76
2022/05/16 11:47:14;;;;;;;11.18;6.32;;;23.60;53.30;;;;;;5037167;28;20373;-77
2022/05/16 11:50:25;;;;;;;11.75;6.50;;;23.50;52.90;;;;;;5037608;28;20049;-78
2022/05/16 11:53:20;;;;;;;12.32;6.47;;;23.60;53.10;;;;;;5037574;28;20045;-75
2022/05/16 12:01:39;;;;;;;11.68;6.35;;;23.50;54.20;;;;;;5037411;28;20360;-76
2022/05/16 12:04:15;;;;;;;13.50;7.80;;;23.40;54.20;;;;;;5037379;28;20044;-75
2022/05/16 12:06:45;;;;;;;12.13;6.93;;;23.40;54.80;;;;;;5037244;28;20051;-77
2022/05/16 12:09:17;;;;;;;14.07;8.32;;;23.20;54.80;;;;;;5037185;28;20052;-77
2022/05/16 12:12:04;;;;;;;16.02;7.30;;;23.00;55.70;;;;;;5037255;28;20045;-76
2022/05/16 12:14:34;;;;;;;15.43;7.22;;;23.00;56.10;;;;;;5037489;28;20044;-76
2022/05/16 12:17:16;;;;;;;12.18;6.60;;;23.00;56.70;;;;;;5036896;28;20484;-76
2022/05/16 12:19:46;;;;;;;13.65;7.32;;;23.00;57.00;;;;;;5037031;28;20037;-75
2022/05/16 12:22:18;;;;;;;10.93;7.25;;;23.10;56.90;;;;;;5020510;28;20111;-77
2022/05/16 12:24:53;;;;;;;12.32;7.15;;;23.10;56.10;;;;;;5037261;28;20346;-77
2022/05/16 12:27:30;;;;;;;13.35;7.72;;;23.20;56.80;;;;;;5036979;28;20048;-75
2022/05/16 12:29:58;;;;;;;10.95;8.18;;;23.40;57.60;;;;;;5036947;28;20045;-76
2022/05/16 12:32:29;;;;;;;11.18;8.32;;;23.50;56.50;;;;;;5036861;28;20056;-78
2022/05/16 12:34:59;;;;;;;13.13;7.47;;;23.50;54.60;;;;;;5036774;28;20052;-76
2022/05/16 12:37:25;;;;;;;11.45;8.00;;;23.50;53.90;;;;;;5020338;28;20128;-78
2022/05/16 12:39:57;;;;;;;11.60;8.18;;;23.60;53.50;;;;;;5036633;28;20120;-78
2022/05/16 12:42:46;;;;;;;13.80;8.70;;;23.60;53.80;;;;;;5020424;28;20131;-76
2022/05/16 12:45:23;;;;;;;13.15;10.05;;;23.70;53.70;;;;;;5020178;28;20488;-76
2022/05/16 12:48:14;;;;;;;13.13;10.27;;;23.80;54.00;;;;;;5036546;28;20099;-76
2022/05/16 12:50:52;;;;;;;16.00;11.05;;;24.00;54.10;;;;;;5036348;28;20524;-78
2022/05/16 12:54:09;;;;;;;15.98;12.20;;;24.40;54.50;;;;;;5036766;28;20041;-75
2022/05/16 12:57:07;;;;;;;16.17;11.93;;;24.50;53.60;;;;;;4998748;28;20059;-77
2022/05/16 12:59:54;;;;;;;18.70;12.20;;;24.70;53.70;;;;;;4999014;28;20049;-76
2022/05/16 13:02:41;;;;;;;15.82;11.23;;;24.70;53.50;;;;;;5036256;28;20139;-75
2022/05/16 13:05:23;;;;;;;18.17;13.10;;;24.70;53.50;;;;;;5036478;28;20366;-75
2022/05/16 13:08:07;;;;;;;19.20;12.68;;;24.60;54.50;;;;;;5020065;28;20044;-77
2022/05/16 13:10:46;;;;;;;18.13;12.43;;;24.90;54.10;;;;;;5036161;28;20045;-76
2022/05/16 13:13:31;;;;;;;14.45;12.38;;;25.20;54.30;;;;;;5019830;28;20053;-75
2022/05/16 13:16:10;;;;;;;14.13;10.32;;;25.30;54.20;;;;;;5036010;28;20045;-76
2022/05/16 13:18:45;;;;;;;15.75;12.15;;;25.40;53.90;;;;;;5035942;28;20072;-75
2022/05/16 13:21:14;;;;;;;14.43;11.55;;;25.50;53.40;;;;;;5035932;28;20072;-77
2022/05/16 13:23:40;;;;;;;14.50;12.40;;;25.40;53.70;;;;;;5019392;28;20048;-76
2022/05/16 13:31:42;;;;;;;10.85;9.75;;;25.30;54.40;;;;;;5035634;28;20091;-76
2022/05/16 13:34:11;;;;;;;13.07;8.82;;;25.40;54.50;;;;;;5035956;28;20036;-77
2022/05/16 13:36:38;;;;;;;12.93;10.18;;;25.50;54.40;;;;;;5035615;28;20123;-76
2022/05/16 13:39:11;;;;;;;12.80;10.05;;;25.60;53.90;;;;;;5035505;28;20040;-77
2022/05/16 13:41:38;;;;;;;11.87;9.23;;;25.60;54.10;;;;;;5019131;28;20515;-78
2022/05/16 13:44:04;;;;;;;11.98;7.55;;;25.60;52.70;;;;;;5035694;28;20115;-76
2022/05/16 13:46:33;;;;;;;11.63;6.97;;;25.50;53.20;;;;;;5035351;28;20564;-77